Decoded Metar for YPKU (KUNUNURRA in AUSTRALIA) (IATA:KNX) | Meteo·Mobile Aviation Weather
aviador You're here:

YPKU Decoded Metar

KUNUNURRA in AUSTRALIA
Report Time2019-02-20 00:30:00
UTC Time2019-02-20 00:44:53
Flight Rules vfr VFR
Wind120° at 07 kt
W.Decomp.*RWY 12: 7.0 kt HW 0.4 kt LCW
W.Rank120° ranks 5
Current wind is below 120° avg. (7.4)
Visibility9999 m
Phenomena:N/A
Clouds:N/A
Expected CloudBase > 3,600 ft AGL from Temp-Dew spread
CeilingNone
Temp31°C (ISA +16)
Dew Point22°C (59% RH)
Heat Index34.6°C
QNH1011 hPa
Density Alt2,428 ft
Elevation148 ft
Report Wrong Elevation
Raw Report
METAR YPKU 200030Z AUTO 12007KT 9999 // NCD 31/22 Q1011
RF00.0/001.2=

Extra information for YPKU:More info

Metar Taf Metar & Taf Last 4 Metars F.Rules Stats Wind Profile Meteogram Temp Stats Airport Information Weather charts Add Link Nearby VenuesMetar ALERT Operation Metar Decoded Social comments